Time;durP1;ratioP1;P1;durP2;ratioP2;P2;SDS_P1;SDS_P2;PMS_P1;PMS_P2;Temp;Humidity;BMP_temperature;BMP_pressure;BME280_temperature;BME280_humidity;BME280_pressure;Samples;Min_cycle;Max_cycle;Signal;HPM_P1;HPM_P2
2023/08/30 00:01:39;;;;;;;1.52;1.42;;;22.40;65.50;;;;;;5071070;28;20087;-35
2023/08/30 00:04:06;;;;;;;1.55;1.45;;;22.40;65.30;;;;;;5071067;28;20118;-35
2023/08/30 00:06:32;;;;;;;1.67;1.58;;;22.40;65.20;;;;;;5075989;28;20054;-35
2023/08/30 00:08:58;;;;;;;1.33;1.23;;;22.40;65.20;;;;;;5074833;28;20115;-35
2023/08/30 00:11:24;;;;;;;1.30;1.20;;;22.40;65.00;;;;;;5058860;28;20017;-35
2023/08/30 00:13:50;;;;;;;1.47;1.20;;;22.30;64.70;;;;;;5071116;28;20409;-35
2023/08/30 00:16:17;;;;;;;1.10;1.00;;;22.30;64.80;;;;;;5066979;28;20025;-34
2023/08/30 00:18:44;;;;;;;1.20;1.10;;;22.30;64.70;;;;;;5070322;28;20037;-35
2023/08/30 00:21:10;;;;;;;1.23;1.13;;;22.30;64.80;;;;;;5065881;28;20293;-35
2023/08/30 00:23:36;;;;;;;0.90;0.90;;;22.30;64.60;;;;;;5065378;28;20013;-34
2023/08/30 00:26:02;;;;;;;1.20;1.08;;;22.30;64.60;;;;;;5064920;28;20041;-35
2023/08/30 00:28:29;;;;;;;1.10;1.00;;;22.20;64.40;;;;;;5068535;28;20070;-34
2023/08/30 00:30:55;;;;;;;1.00;1.00;;;22.20;64.60;;;;;;5071949;28;20055;-35
2023/08/30 00:33:21;;;;;;;0.82;0.80;;;22.20;64.50;;;;;;5068166;28;20107;-35
2023/08/30 00:35:54;;;;;;;0.90;0.90;;;22.20;65.00;;;;;;5075515;28;20567;-35
2023/08/30 00:38:21;;;;;;;0.98;0.98;;;22.20;64.80;;;;;;5055187;28;20092;-35
2023/08/30 00:40:47;;;;;;;0.80;0.80;;;22.20;65.00;;;;;;5064748;28;20037;-35
2023/08/30 00:43:13;;;;;;;1.00;0.90;;;22.20;64.90;;;;;;5072630;28;20025;-35
2023/08/30 00:45:40;;;;;;;0.90;0.90;;;22.20;65.10;;;;;;5069257;28;20043;-35
2023/08/30 00:48:06;;;;;;;1.13;0.80;;;22.10;64.90;;;;;;5043323;28;20498;-35
2023/08/30 00:50:33;;;;;;;0.80;0.80;;;22.10;65.00;;;;;;5067432;28;20043;-35
2023/08/30 00:53:02;;;;;;;0.63;0.63;;;22.10;64.70;;;;;;5064656;28;20029;-35
2023/08/30 00:55:28;;;;;;;0.68;0.65;;;22.10;64.40;;;;;;5058158;28;20141;-35
2023/08/30 00:57:54;;;;;;;0.77;0.68;;;22.10;64.50;;;;;;5052842;28;20025;-35
2023/08/30 01:00:20;;;;;;;0.60;0.60;;;22.00;64.50;;;;;;5071129;28;20545;-36
2023/08/30 01:02:46;;;;;;;0.75;0.75;;;22.00;64.40;;;;;;5078401;28;20464;-35
2023/08/30 01:05:12;;;;;;;0.65;0.60;;;22.00;64.40;;;;;;5081247;28;20029;-35
2023/08/30 01:07:39;;;;;;;0.70;0.60;;;22.00;64.20;;;;;;5076675;28;20020;-35
2023/08/30 01:10:05;;;;;;;0.70;0.60;;;22.00;63.30;;;;;;5073843;28;20037;-35
2023/08/30 01:12:40;;;;;;;0.60;0.60;;;21.90;64.10;;;;;;5071115;28;20045;-35
2023/08/30 01:15:22;;;;;;;0.50;0.50;;;21.90;64.10;;;;;;5060598;28;20032;-36
2023/08/30 01:17:48;;;;;;;0.40;0.40;;;21.90;63.70;;;;;;5065515;28;20059;-34
2023/08/30 01:20:18;;;;;;;0.50;0.50;;;21.90;64.40;;;;;;5053275;28;20040;-35
2023/08/30 01:23:05;;;;;;;0.40;0.40;;;21.90;64.10;;;;;;5045640;28;20099;-35
2023/08/30 01:26:08;;;;;;;0.45;0.40;;;21.90;63.50;;;;;;5065023;28;20024;-34
2023/08/30 01:28:34;;;;;;;0.40;0.40;;;21.80;63.40;;;;;;5045617;28;20074;-34
2023/08/30 01:31:00;;;;;;;0.52;0.47;;;21.80;64.00;;;;;;5062601;28;20051;-35
2023/08/30 01:33:29;;;;;;;0.38;0.38;;;21.80;64.20;;;;;;5051153;28;20047;-35
2023/08/30 01:35:56;;;;;;;0.43;0.40;;;21.80;63.60;;;;;;5055169;28;20492;-34
2023/08/30 01:38:23;;;;;;;0.32;0.32;;;21.70;63.80;;;;;;5074230;28;20098;-34
2023/08/30 01:40:49;;;;;;;0.40;0.40;;;21.70;63.70;;;;;;5073831;28;20044;-34
2023/08/30 01:43:15;;;;;;;0.40;0.40;;;21.70;63.40;;;;;;5071644;28;20040;-34
2023/08/30 01:45:42;;;;;;;0.30;0.30;;;21.70;64.40;;;;;;5044286;28;20033;-35
2023/08/30 01:48:09;;;;;;;;;;;21.70;64.60;;;;;;5041816;28;20048;-34
2023/08/30 01:50:35;;;;;;;0.30;0.30;;;21.70;65.20;;;;;;5081488;28;19955;-35
2023/08/30 01:53:02;;;;;;;0.40;0.40;;;21.70;64.60;;;;;;5058522;28;20029;-35
2023/08/30 01:55:28;;;;;;;0.73;0.57;;;21.60;64.80;;;;;;5062959;28;20063;-35
2023/08/30 01:57:54;;;;;;;0.28;0.28;;;21.60;65.00;;;;;;5073634;28;20051;-35
2023/08/30 02:00:20;;;;;;;0.30;0.30;;;21.60;65.00;;;;;;5066081;28;20124;-35
2023/08/30 02:02:47;;;;;;;0.32;0.30;;;21.60;65.40;;;;;;5051606;28;20028;-34
2023/08/30 02:05:14;;;;;;;0.30;0.30;;;21.60;64.90;;;;;;5070020;28;20092;-35
2023/08/30 02:07:54;;;;;;;0.30;0.30;;;21.60;65.20;;;;;;5069077;28;20032;-35
2023/08/30 02:10:33;;;;;;;0.20;0.20;;;21.60;63.80;;;;;;5067984;28;20048;-35
2023/08/30 02:12:59;;;;;;;0.20;0.20;;;21.50;64.20;;;;;;5077312;28;20056;-34
2023/08/30 02:15:26;;;;;;;0.30;0.30;;;21.50;64.60;;;;;;5051712;28;20444;-34
2023/08/30 02:17:52;;;;;;;0.30;0.30;;;21.50;65.00;;;;;;5053898;28;20029;-35
2023/08/30 02:20:18;;;;;;;0.30;0.30;;;21.50;65.80;;;;;;5052670;28;20020;-35
2023/08/30 02:22:44;;;;;;;0.13;0.13;;;21.50;64.50;;;;;;5061500;28;20053;-34
2023/08/30 02:25:10;;;;;;;0.35;0.30;;;21.40;64.60;;;;;;5070498;28;20110;-36
2023/08/30 02:27:37;;;;;;;0.38;0.20;;;21.40;64.40;;;;;;5062759;28;20025;-35
2023/08/30 02:30:03;;;;;;;0.47;0.47;;;21.40;64.60;;;;;;5063924;28;20055;-35
2023/08/30 02:32:29;;;;;;;0.63;0.20;;;21.40;64.10;;;;;;5055629;28;20036;-34
2023/08/30 02:34:56;;;;;;;0.13;0.13;;;21.40;64.40;;;;;;5080751;28;20098;-35
2023/08/30 02:37:22;;;;;;;0.20;0.20;;;21.40;63.30;;;;;;5068213;28;20096;-35
2023/08/30 02:39:49;;;;;;;0.10;0.10;;;21.30;63.50;;;;;;5076966;28;20068;-34
2023/08/30 02:42:15;;;;;;;0.20;0.20;;;21.30;63.70;;;;;;5070243;28;20033;-34
2023/08/30 02:44:41;;;;;;;0.40;0.20;;;21.30;63.50;;;;;;5062651;28;20044;-34
2023/08/30 02:47:07;;;;;;;0.20;0.20;;;21.30;63.10;;;;;;5077068;28;20067;-35
2023/08/30 02:49:34;;;;;;;0.10;0.10;;;21.20;63.50;;;;;;5052373;28;20120;-34
2023/08/30 02:52:00;;;;;;;0.10;0.10;;;21.20;63.10;;;;;;5070195;28;20036;-34
2023/08/30 02:54:26;;;;;;;0.55;0.20;;;21.20;62.90;;;;;;5076363;28;20096;-35
2023/08/30 02:56:52;;;;;;;0.17;0.13;;;21.20;63.50;;;;;;5078441;28;20028;-34
2023/08/30 02:59:18;;;;;;;0.30;0.20;;;21.20;64.00;;;;;;5074651;28;20584;-34
2023/08/30 03:01:45;;;;;;;0.20;0.20;;;21.20;64.10;;;;;;5069974;28;20036;-35
2023/08/30 03:04:11;;;;;;;0.22;0.20;;;21.10;66.70;;;;;;5076932;28;20059;-34
2023/08/30 03:06:37;;;;;;;0.20;0.20;;;21.10;68.10;;;;;;5066152;28;20140;-35
2023/08/30 03:09:04;;;;;;;0.20;0.20;;;21.10;68.60;;;;;;5066312;28;20025;-34
2023/08/30 03:11:30;;;;;;;0.20;0.20;;;21.10;69.10;;;;;;5073159;28;20067;-34
2023/08/30 03:13:56;;;;;;;0.30;0.20;;;21.10;69.20;;;;;;5080265;28;20029;-35
2023/08/30 03:16:22;;;;;;;0.30;0.20;;;21.10;69.20;;;;;;5080591;28;20084;-34
2023/08/30 03:18:49;;;;;;;0.20;0.20;;;21.10;69.20;;;;;;5074953;28;20024;-34
2023/08/30 03:21:15;;;;;;;0.15;0.10;;;21.10;69.60;;;;;;5066531;28;20041;-34
2023/08/30 03:23:42;;;;;;;0.20;0.20;;;21.10;69.70;;;;;;5074356;28;20032;-35
2023/08/30 03:26:09;;;;;;;0.20;0.20;;;21.10;69.90;;;;;;5074885;28;20033;-34
2023/08/30 03:28:36;;;;;;;0.20;0.20;;;21.10;70.00;;;;;;5069966;28;20028;-34
2023/08/30 03:31:02;;;;;;;0.30;0.20;;;21.10;70.00;;;;;;5067906;28;20580;-34
2023/08/30 03:33:28;;;;;;;0.20;0.20;;;21.10;70.10;;;;;;5076316;28;20032;-34
2023/08/30 03:35:54;;;;;;;0.10;0.10;;;21.10;70.30;;;;;;5083056;28;20082;-34
2023/08/30 03:38:20;;;;;;;0.20;0.10;;;21.20;70.50;;;;;;5038697;28;20021;-35
2023/08/30 03:40:46;;;;;;;0.28;0.20;;;21.20;70.70;;;;;;5064834;28;20041;-34
2023/08/30 03:43:12;;;;;;;0.68;0.17;;;21.20;70.70;;;;;;5082944;28;20025;-34
2023/08/30 03:45:38;;;;;;;0.10;0.10;;;21.20;70.80;;;;;;5075401;28;20089;-34
2023/08/30 03:48:05;;;;;;;0.20;0.20;;;21.20;71.00;;;;;;5057929;28;20029;-35
2023/08/30 03:50:31;;;;;;;0.10;0.10;;;21.20;71.00;;;;;;5064501;28;20079;-35
2023/08/30 03:52:57;;;;;;;0.20;0.20;;;21.20;71.10;;;;;;5075089;28;20037;-35
2023/08/30 03:55:23;;;;;;;0.15;0.15;;;21.20;71.20;;;;;;5075919;28;20040;-34
2023/08/30 03:57:49;;;;;;;0.10;0.10;;;21.30;71.20;;;;;;5076072;28;20036;-35
2023/08/30 04:00:16;;;;;;;0.20;0.20;;;21.30;71.30;;;;;;5082910;28;20058;-34
2023/08/30 04:02:44;;;;;;;0.10;0.10;;;21.30;71.30;;;;;;5076720;28;20024;-35
2023/08/30 04:05:10;;;;;;;0.10;0.10;;;21.30;71.30;;;;;;5056286;28;20036;-35
2023/08/30 04:07:36;;;;;;;0.20;0.20;;;21.30;71.30;;;;;;5069592;28;20021;-35
2023/08/30 04:10:06;;;;;;;0.30;0.20;;;21.30;71.40;;;;;;5080019;28;20029;-34
2023/08/30 04:12:32;;;;;;;0.20;0.15;;;21.30;71.50;;;;;;5072375;28;20037;-35
2023/08/30 04:14:58;;;;;;;0.15;0.13;;;21.40;71.50;;;;;;5064526;28;20033;-34
2023/08/30 04:17:24;;;;;;;0.10;0.10;;;21.40;71.50;;;;;;5073430;28;20058;-35
2023/08/30 04:19:53;;;;;;;1.25;0.20;;;21.40;71.60;;;;;;5064503;28;20037;-34
2023/08/30 04:22:20;;;;;;;0.10;0.10;;;21.40;71.80;;;;;;5057003;28;20052;-35
2023/08/30 04:24:49;;;;;;;0.20;0.10;;;21.40;71.70;;;;;;5071652;28;20035;-35
2023/08/30 04:27:15;;;;;;;0.20;0.20;;;21.40;71.90;;;;;;5066683;28;20048;-35
2023/08/30 04:29:44;;;;;;;0.20;0.20;;;21.50;71.90;;;;;;5069267;28;20025;-35
2023/08/30 04:32:11;;;;;;;0.20;0.20;;;21.50;72.00;;;;;;5074840;28;20033;-34
2023/08/30 04:34:37;;;;;;;0.32;0.20;;;21.50;71.90;;;;;;5070078;28;20028;-34
2023/08/30 04:37:04;;;;;;;0.20;0.10;;;21.50;71.90;;;;;;5073402;28;20063;-35
2023/08/30 04:39:30;;;;;;;0.85;0.20;;;21.50;71.90;;;;;;5071762;28;20090;-35
2023/08/30 04:41:56;;;;;;;0.20;0.20;;;21.50;71.90;;;;;;5053901;28;20127;-35
2023/08/30 04:44:24;;;;;;;0.20;0.10;;;21.50;71.90;;;;;;5075496;28;20078;-35
2023/08/30 04:46:52;;;;;;;0.20;0.20;;;21.50;72.00;;;;;;5075036;28;20269;-34
2023/08/30 04:49:18;;;;;;;0.10;0.10;;;21.60;72.00;;;;;;5066082;28;20060;-35
2023/08/30 04:51:44;;;;;;;0.13;0.13;;;21.60;72.10;;;;;;5070870;28;20051;-34
2023/08/30 04:54:10;;;;;;;0.20;0.20;;;21.60;72.10;;;;;;5074832;28;20046;-34
2023/08/30 04:56:36;;;;;;;0.13;0.10;;;21.60;72.20;;;;;;5071351;28;20099;-34
2023/08/30 04:59:03;;;;;;;0.63;0.10;;;21.60;72.10;;;;;;5064070;28;20025;-35
2023/08/30 05:01:33;;;;;;;0.40;0.10;;;21.60;72.20;;;;;;5064121;28;20048;-35
2023/08/30 05:03:59;;;;;;;0.20;0.20;;;21.60;72.30;;;;;;5063676;28;20092;-34
2023/08/30 05:06:25;;;;;;;0.13;0.10;;;21.60;72.30;;;;;;5059603;28;20568;-34
2023/08/30 05:08:52;;;;;;;0.30;0.20;;;21.60;72.30;;;;;;5073387;28;20028;-35
2023/08/30 05:11:18;;;;;;;0.20;0.20;;;21.60;72.20;;;;;;5070796;28;20052;-34
2023/08/30 05:13:44;;;;;;;0.40;0.20;;;21.60;72.20;;;;;;5067200;28;20035;-35
2023/08/30 05:16:10;;;;;;;0.57;0.20;;;21.70;72.30;;;;;;5072008;28;20025;-35
2023/08/30 05:18:36;;;;;;;0.20;0.20;;;21.70;72.40;;;;;;5068733;28;20024;-35
2023/08/30 05:21:03;;;;;;;1.77;0.20;;;21.70;72.40;;;;;;5072745;28;20047;-34
2023/08/30 05:23:29;;;;;;;0.30;0.10;;;21.70;72.50;;;;;;5063516;28;20021;-34
2023/08/30 05:25:55;;;;;;;1.00;0.20;;;21.70;73.30;;;;;;5063844;28;20033;-34
2023/08/30 05:28:21;;;;;;;0.55;0.20;;;21.70;72.50;;;;;;5068895;28;20085;-34
2023/08/30 05:30:48;;;;;;;0.17;0.10;;;21.70;72.60;;;;;;5077346;28;20036;-34
2023/08/30 05:33:14;;;;;;;0.10;0.10;;;21.70;72.70;;;;;;5065772;28;20028;-35
2023/08/30 05:35:40;;;;;;;0.10;0.10;;;21.70;72.60;;;;;;5075772;28;20048;-35
2023/08/30 05:38:06;;;;;;;0.20;0.20;;;21.70;72.60;;;;;;5078866;28;20020;-34
2023/08/30 05:40:32;;;;;;;0.10;0.10;;;21.70;72.70;;;;;;5071478;28;20028;-34
2023/08/30 05:42:58;;;;;;;0.63;0.15;;;21.80;72.70;;;;;;5063582;28;20036;-35
2023/08/30 05:45:24;;;;;;;0.63;0.10;;;21.80;72.80;;;;;;5066305;28;20020;-35
2023/08/30 05:47:51;;;;;;;0.13;0.10;;;21.80;72.70;;;;;;5068754;28;20033;-34
2023/08/30 05:50:17;;;;;;;0.10;0.10;;;21.80;72.60;;;;;;5070841;28;20043;-35
2023/08/30 05:52:44;;;;;;;0.10;0.10;;;21.80;72.60;;;;;;5072063;28;20040;-35
2023/08/30 05:55:10;;;;;;;0.13;0.10;;;21.80;72.70;;;;;;5071246;28;20110;-35
2023/08/30 05:57:37;;;;;;;0.20;0.20;;;21.80;72.70;;;;;;5074627;28;20029;-35
2023/08/30 06:00:04;;;;;;;0.20;0.20;;;21.80;72.90;;;;;;5072777;28;20037;-34
2023/08/30 06:02:31;;;;;;;0.38;0.17;;;21.80;73.00;;;;;;5080626;28;20040;-35
2023/08/30 06:04:57;;;;;;;0.20;0.20;;;21.80;73.10;;;;;;5065766;28;20040;-34
2023/08/30 06:07:23;;;;;;;0.13;0.10;;;21.80;73.10;;;;;;5073182;28;20801;-35
2023/08/30 06:09:49;;;;;;;0.13;0.10;;;21.90;73.20;;;;;;5080770;28;20036;-34
2023/08/30 06:12:15;;;;;;;0.15;0.10;;;21.90;73.20;;;;;;5070412;28;20017;-35
2023/08/30 06:14:43;;;;;;;0.95;0.20;;;21.90;73.30;;;;;;5063262;28;20033;-34
2023/08/30 06:17:09;;;;;;;0.70;0.20;;;21.90;73.30;;;;;;5062728;28;20040;-34
2023/08/30 06:19:35;;;;;;;0.35;0.20;;;21.90;73.50;;;;;;5064769;28;20037;-35
2023/08/30 06:22:01;;;;;;;0.32;0.20;;;21.90;73.30;;;;;;5070651;28;20036;-35
2023/08/30 06:24:27;;;;;;;0.30;0.28;;;21.90;73.30;;;;;;5070113;28;20092;-35
2023/08/30 06:26:53;;;;;;;0.95;0.20;;;21.90;73.20;;;;;;5062574;28;20037;-34
2023/08/30 06:29:20;;;;;;;0.30;0.20;;;21.90;73.40;;;;;;5077020;28;20028;-34
2023/08/30 06:31:46;;;;;;;1.10;0.25;;;21.90;73.30;;;;;;5078227;28;20092;-35
2023/08/30 06:34:12;;;;;;;0.40;0.20;;;21.90;73.20;;;;;;5067699;28;20033;-35
2023/08/30 06:36:38;;;;;;;0.57;0.20;;;21.90;73.30;;;;;;5071854;28;20040;-35
2023/08/30 06:39:04;;;;;;;0.38;0.10;;;22.00;73.30;;;;;;5075775;28;20037;-34
2023/08/30 06:41:30;;;;;;;0.20;0.20;;;22.00;73.40;;;;;;5074020;28;20104;-34
2023/08/30 06:43:57;;;;;;;0.30;0.10;;;22.00;74.20;;;;;;5066870;28;20112;-34
2023/08/30 06:46:23;;;;;;;0.47;0.28;;;22.00;73.50;;;;;;5081181;28;20580;-35
2023/08/30 06:48:49;;;;;;;0.20;0.20;;;22.00;73.60;;;;;;5064892;28;20033;-35
2023/08/30 06:51:15;;;;;;;1.10;0.22;;;22.00;73.60;;;;;;5067246;28;20028;-34
2023/08/30 06:53:41;;;;;;;0.43;0.20;;;22.00;73.70;;;;;;5065330;28;20029;-34
2023/08/30 06:56:08;;;;;;;0.40;0.20;;;22.00;73.80;;;;;;5081298;28;20487;-35
2023/08/30 06:58:34;;;;;;;0.23;0.20;;;22.00;73.80;;;;;;5083063;28;20029;-35
2023/08/30 07:01:00;;;;;;;0.30;0.28;;;22.00;73.80;;;;;;5082651;28;20324;-35
2023/08/30 07:03:26;;;;;;;0.30;0.30;;;22.00;73.80;;;;;;5065814;28;20028;-34
2023/08/30 07:05:53;;;;;;;1.52;0.30;;;22.00;73.80;;;;;;5080315;28;20081;-34
2023/08/30 07:08:19;;;;;;;0.82;0.20;;;22.00;73.70;;;;;;5079797;28;20104;-34
2023/08/30 07:10:45;;;;;;;0.10;0.10;;;22.00;73.50;;;;;;5072723;28;20037;-35
2023/08/30 07:13:12;;;;;;;0.22;0.20;;;22.10;73.60;;;;;;5080374;28;20039;-35
2023/08/30 07:15:39;;;;;;;;;;;22.10;73.60;;;;;;5071703;28;20052;-34
2023/08/30 07:18:06;;;;;;;0.30;0.17;;;22.10;73.60;;;;;;5077221;28;19916;-34
2023/08/30 07:20:32;;;;;;;0.28;0.20;;;22.10;73.60;;;;;;5083386;28;20040;-34
2023/08/30 07:22:58;;;;;;;0.63;0.20;;;22.10;73.80;;;;;;5068673;28;20052;-35
2023/08/30 07:25:24;;;;;;;0.28;0.20;;;22.10;73.90;;;;;;5075958;28;20027;-34
2023/08/30 07:27:50;;;;;;;1.00;0.30;;;22.10;73.80;;;;;;5075681;28;20516;-35
2023/08/30 07:30:17;;;;;;;0.30;0.28;;;22.10;74.00;;;;;;5080435;28;20039;-35
2023/08/30 07:32:43;;;;;;;1.23;0.20;;;22.10;74.10;;;;;;5078312;28;20063;-34
2023/08/30 07:35:09;;;;;;;0.20;0.20;;;22.10;74.00;;;;;;5071922;28;20041;-35
2023/08/30 07:37:35;;;;;;;0.22;0.20;;;22.10;74.10;;;;;;5074945;28;20024;-39
2023/08/30 07:40:04;;;;;;;0.40;0.30;;;22.10;74.10;;;;;;5062847;28;20619;-35
2023/08/30 07:42:30;;;;;;;0.20;0.20;;;22.10;74.10;;;;;;5069502;28;20086;-34
2023/08/30 07:44:56;;;;;;;0.65;0.20;;;22.10;74.20;;;;;;5068566;28;20032;-34
2023/08/30 07:47:23;;;;;;;0.30;0.20;;;22.10;74.10;;;;;;5071868;28;20116;-35
2023/08/30 07:49:49;;;;;;;1.45;0.20;;;22.10;74.00;;;;;;5061622;28;20028;-35
2023/08/30 07:52:15;;;;;;;0.82;0.30;;;22.20;74.10;;;;;;5081460;28;20021;-34
2023/08/30 07:54:41;;;;;;;0.55;0.30;;;22.20;74.10;;;;;;5073457;28;20025;-35
2023/08/30 07:57:07;;;;;;;0.63;0.20;;;22.20;74.10;;;;;;5079075;28;20037;-35
2023/08/30 07:59:35;;;;;;;0.55;0.20;;;22.20;74.10;;;;;;5068269;28;20041;-35
2023/08/30 08:02:02;;;;;;;0.50;0.25;;;22.10;74.10;;;;;;5079207;28;20032;-35
2023/08/30 08:04:28;;;;;;;;;;;22.20;74.20;;;;;;5079682;28;20028;-35
2023/08/30 08:06:54;;;;;;;0.40;0.20;;;22.20;74.20;;;;;;5065500;28;20358;-35
2023/08/30 08:09:21;;;;;;;0.55;0.30;;;22.20;74.20;;;;;;5060171;28;20089;-34
2023/08/30 08:11:49;;;;;;;0.20;0.20;;;22.20;74.20;;;;;;5075378;28;20029;-35
2023/08/30 08:14:15;;;;;;;0.30;0.30;;;22.20;74.10;;;;;;5072436;28;20029;-35
2023/08/30 08:16:41;;;;;;;0.50;0.30;;;22.20;74.20;;;;;;5070478;28;20078;-35
2023/08/30 08:19:07;;;;;;;0.50;0.30;;;22.20;74.20;;;;;;5075331;28;20062;-35
2023/08/30 08:21:34;;;;;;;0.20;0.20;;;22.20;74.20;;;;;;5062973;28;20060;-35
2023/08/30 08:24:00;;;;;;;0.20;0.20;;;22.20;74.20;;;;;;5056752;28;20040;-35
2023/08/30 08:26:27;;;;;;;1.27;0.20;;;22.20;74.20;;;;;;5071666;28;20040;-34
2023/08/30 08:28:55;;;;;;;0.70;0.27;;;22.20;74.10;;;;;;5063688;28;20053;-35
2023/08/30 08:31:21;;;;;;;1.00;0.20;;;22.20;74.10;;;;;;5053950;28;20361;-35
2023/08/30 08:33:51;;;;;;;0.20;0.20;;;22.20;74.10;;;;;;5064272;28;20036;-35
2023/08/30 08:36:17;;;;;;;0.20;0.20;;;22.20;74.10;;;;;;5071959;28;20341;-35
2023/08/30 08:38:43;;;;;;;0.20;0.20;;;22.20;74.20;;;;;;5078127;28;20032;-35
2023/08/30 08:41:11;;;;;;;0.40;0.20;;;22.30;74.20;;;;;;5080285;28;20421;-35
2023/08/30 08:43:37;;;;;;;0.32;0.20;;;22.30;74.20;;;;;;5052414;28;20027;-35
2023/08/30 08:46:06;;;;;;;0.25;0.20;;;22.20;74.20;;;;;;5055154;28;20040;-34
2023/08/30 08:48:33;;;;;;;0.30;0.30;;;22.30;74.20;;;;;;5068122;28;20024;-35
2023/08/30 08:51:00;;;;;;;0.65;0.30;;;22.30;74.50;;;;;;5048050;28;20025;-35
2023/08/30 08:53:26;;;;;;;0.47;0.20;;;22.30;74.60;;;;;;5054053;28;20033;-39
2023/08/30 08:55:52;;;;;;;0.73;0.30;;;22.30;74.60;;;;;;5071072;28;20052;-35
2023/08/30 08:58:18;;;;;;;0.82;0.28;;;22.30;74.50;;;;;;5056372;28;20028;-35
2023/08/30 09:00:44;;;;;;;0.90;0.28;;;22.30;74.70;;;;;;5075013;28;20122;-35
2023/08/30 09:03:11;;;;;;;0.30;0.20;;;22.30;74.80;;;;;;5065778;28;20397;-35
2023/08/30 09:05:40;;;;;;;0.38;0.20;;;22.30;74.70;;;;;;5074584;28;20111;-34
2023/08/30 09:08:07;;;;;;;0.60;0.28;;;22.30;74.50;;;;;;5065339;28;20025;-34
2023/08/30 09:10:33;;;;;;;0.30;0.30;;;22.30;74.40;;;;;;5070792;28;20021;-35
2023/08/30 09:13:00;;;;;;;0.33;0.23;;;22.30;74.50;;;;;;5071128;28;20712;-35
2023/08/30 09:15:32;;;;;;;1.70;0.20;;;22.30;74.40;;;;;;5081547;28;20304;-34
2023/08/30 09:17:59;;;;;;;0.20;0.20;;;22.30;74.40;;;;;;5068172;28;20088;-35
2023/08/30 09:20:25;;;;;;;0.47;0.20;;;22.30;74.40;;;;;;5056693;28;20036;-35
2023/08/30 09:22:51;;;;;;;1.00;0.30;;;22.30;74.40;;;;;;5065814;28;20101;-35
2023/08/30 09:25:27;;;;;;;0.75;0.30;;;22.30;74.50;;;;;;5070349;28;20088;-35
2023/08/30 09:27:59;;;;;;;0.85;0.30;;;22.30;74.40;;;;;;5077588;28;20449;-35
2023/08/30 09:30:26;;;;;;;0.70;0.20;;;22.30;74.40;;;;;;5055373;28;20112;-35
2023/08/30 09:32:52;;;;;;;0.25;0.20;;;22.30;74.60;;;;;;5061889;28;20033;-35
2023/08/30 09:35:18;;;;;;;0.20;0.20;;;22.30;74.80;;;;;;5048523;28;20056;-35
2023/08/30 09:37:47;;;;;;;0.35;0.30;;;22.30;74.80;;;;;;5074296;28;20058;-35
2023/08/30 09:40:19;;;;;;;0.43;0.30;;;22.30;75.00;;;;;;5069584;28;20114;-34
2023/08/30 09:42:45;;;;;;;0.20;0.20;;;22.30;74.80;;;;;;5067482;28;20093;-35
2023/08/30 09:45:23;;;;;;;0.40;0.20;;;22.30;74.80;;;;;;5051546;28;20033;-35
2023/08/30 09:47:50;;;;;;;0.43;0.30;;;22.30;74.70;;;;;;5070704;28;20214;-35
2023/08/30 09:50:20;;;;;;;0.20;0.20;;;22.30;74.50;;;;;;5069625;28;20025;-35
2023/08/30 09:52:50;;;;;;;0.22;0.20;;;22.40;74.70;;;;;;5072695;28;20041;-35
2023/08/30 09:55:17;;;;;;;0.20;0.20;;;22.30;74.60;;;;;;5073089;28;20049;-34
2023/08/30 09:57:43;;;;;;;0.20;0.20;;;22.30;74.60;;;;;;5063336;28;20033;-35
2023/08/30 10:00:12;;;;;;;0.40;0.20;;;22.40;74.50;;;;;;5073325;28;20062;-34
2023/08/30 10:02:42;;;;;;;0.30;0.20;;;22.40;74.60;;;;;;5080426;28;20807;-35
2023/08/30 10:05:12;;;;;;;0.20;0.20;;;22.30;74.40;;;;;;5072501;28;20086;-35
2023/08/30 10:07:39;;;;;;;0.20;0.20;;;22.30;74.40;;;;;;5062820;28;20029;-35
2023/08/30 10:10:06;;;;;;;0.32;0.30;;;22.40;74.50;;;;;;5068308;28;20024;-35
2023/08/30 10:12:33;;;;;;;0.47;0.28;;;22.30;74.70;;;;;;5062961;28;20037;-35
2023/08/30 10:14:59;;;;;;;0.47;0.20;;;22.40;74.90;;;;;;5064108;28;20071;-35
2023/08/30 10:17:32;;;;;;;0.77;0.20;;;22.40;74.80;;;;;;5064356;28;20036;-35
2023/08/30 10:19:59;;;;;;;0.85;0.30;;;22.40;74.80;;;;;;5063249;28;20048;-34
2023/08/30 10:22:25;;;;;;;0.90;0.30;;;22.40;74.90;;;;;;5056317;28;20047;-35
2023/08/30 10:24:57;;;;;;;0.20;0.20;;;22.40;74.90;;;;;;5069927;28;20045;-35
2023/08/30 10:27:25;;;;;;;0.70;0.30;;;22.40;74.80;;;;;;5058797;28;20029;-34
2023/08/30 10:29:51;;;;;;;0.20;0.20;;;22.40;74.60;;;;;;5070111;28;20055;-34
2023/08/30 10:32:21;;;;;;;0.40;0.30;;;22.40;74.50;;;;;;5054478;28;20028;-34
2023/08/30 10:34:51;;;;;;;0.50;0.30;;;22.40;74.50;;;;;;5057063;28;20033;-35
2023/08/30 10:37:26;;;;;;;0.40;0.30;;;22.40;74.50;;;;;;5064589;28;20106;-35
2023/08/30 10:39:53;;;;;;;0.40;0.40;;;22.40;74.40;;;;;;5066353;28;20059;-35
2023/08/30 10:42:23;;;;;;;0.30;0.30;;;22.40;74.50;;;;;;5078592;28;20033;-34
2023/08/30 10:45:13;;;;;;;1.15;0.30;;;22.40;74.40;;;;;;5067146;28;20272;-35
2023/08/30 10:47:39;;;;;;;0.38;0.30;;;22.40;74.50;;;;;;5057224;28;20033;-35
2023/08/30 10:50:07;;;;;;;0.52;0.47;;;22.40;74.60;;;;;;5052713;28;20032;-34
2023/08/30 10:52:33;;;;;;;0.20;0.20;;;22.40;74.70;;;;;;5068795;28;20021;-35
2023/08/30 10:55:10;;;;;;;0.20;0.20;;;22.40;74.70;;;;;;5069723;28;20054;-35
2023/08/30 10:57:36;;;;;;;0.40;0.22;;;22.40;74.80;;;;;;5062311;28;20055;-35
2023/08/30 11:00:18;;;;;;;0.37;0.23;;;22.40;74.80;;;;;;5049600;28;20111;-34
2023/08/30 11:02:51;;;;;;;0.50;0.17;;;22.40;74.80;;;;;;5073297;28;20039;-35
2023/08/30 11:05:18;;;;;;;0.20;0.20;;;22.40;74.90;;;;;;5072258;28;20131;-35
2023/08/30 11:07:45;;;;;;;0.25;0.20;;;22.40;74.80;;;;;;5051839;28;20033;-35
2023/08/30 11:10:12;;;;;;;0.30;0.30;;;22.40;74.70;;;;;;5070155;28;20052;-35
2023/08/30 11:12:42;;;;;;;0.38;0.28;;;22.40;74.70;;;;;;5062392;28;20025;-37
2023/08/30 11:15:09;;;;;;;1.98;0.30;;;22.40;74.70;;;;;;5066172;28;20052;-35
2023/08/30 11:17:35;;;;;;;0.52;0.28;;;22.40;74.70;;;;;;5066771;28;20440;-35
2023/08/30 11:20:08;;;;;;;0.20;0.15;;;22.40;74.70;;;;;;5073343;28;20071;-34
2023/08/30 11:22:41;;;;;;;0.43;0.30;;;22.40;74.80;;;;;;5074997;28;20063;-34
2023/08/30 11:25:08;;;;;;;0.43;0.30;;;22.40;74.70;;;;;;5067264;28;20029;-34
2023/08/30 11:27:34;;;;;;;0.32;0.30;;;22.40;74.90;;;;;;5052141;28;20079;-35
2023/08/30 11:30:05;;;;;;;0.30;0.30;;;22.40;74.80;;;;;;5068578;28;20029;-34
2023/08/30 11:32:38;;;;;;;0.30;0.30;;;22.40;74.80;;;;;;5065206;28;20934;-35
2023/08/30 11:35:05;;;;;;;0.20;0.20;;;22.40;74.90;;;;;;5072337;28;20103;-35
2023/08/30 11:37:31;;;;;;;0.75;0.30;;;22.40;74.90;;;;;;5068453;28;20025;-35
2023/08/30 11:39:58;;;;;;;1.92;0.40;;;22.40;75.00;;;;;;5073266;28;20082;-34
2023/08/30 11:42:24;;;;;;;0.40;0.30;;;22.40;75.00;;;;;;5065765;28;20049;-35
2023/08/30 11:44:51;;;;;;;0.28;0.20;;;22.40;75.00;;;;;;5072408;28;20025;-35
2023/08/30 11:47:20;;;;;;;;;;;22.40;75.00;;;;;;5066417;28;20729;-35
2023/08/30 11:49:49;;;;;;;0.15;0.15;;;22.40;75.10;;;;;;5067792;28;19909;-35
2023/08/30 11:52:16;;;;;;;0.30;0.30;;;22.40;75.00;;;;;;5065662;28;20078;-34
2023/08/30 11:54:42;;;;;;;;;;;22.40;75.00;;;;;;5068710;28;20547;-35
2023/08/30 11:57:08;;;;;;;0.22;0.22;;;22.40;75.00;;;;;;5080003;28;19912;-35
2023/08/30 11:59:37;;;;;;;0.37;0.30;;;22.40;75.00;;;;;;5064514;28;20021;-34
2023/08/30 12:02:04;;;;;;;0.77;0.30;;;22.40;75.00;;;;;;5054126;28;21126;-35
2023/08/30 12:04:31;;;;;;;0.30;0.28;;;22.40;75.00;;;;;;5069311;28;20168;-35
2023/08/30 12:06:57;;;;;;;;;;;22.40;75.00;;;;;;5075435;28;20111;-34
2023/08/30 12:09:23;;;;;;;0.85;0.40;;;22.40;75.00;;;;;;5065257;28;20646;-35
2023/08/30 12:11:49;;;;;;;0.40;0.30;;;22.40;75.20;;;;;;5070671;28;20039;-35
2023/08/30 12:14:16;;;;;;;0.30;0.30;;;22.40;75.10;;;;;;5072415;28;20049;-35
2023/08/30 12:16:43;;;;;;;1.02;0.40;;;22.40;75.40;;;;;;5070423;28;20273;-34
2023/08/30 12:19:10;;;;;;;0.20;0.20;;;22.40;75.30;;;;;;5069192;28;20037;-35
2023/08/30 12:21:54;;;;;;;0.28;0.20;;;22.40;75.30;;;;;;5082147;28;20032;-35
2023/08/30 12:24:22;;;;;;;0.57;0.30;;;22.40;75.20;;;;;;5064603;28;20048;-35
2023/08/30 12:26:49;;;;;;;1.27;0.30;;;22.40;75.30;;;;;;5071549;28;20044;-35
2023/08/30 12:29:15;;;;;;;0.30;0.30;;;22.40;75.30;;;;;;5071656;28;20021;-35
2023/08/30 12:31:42;;;;;;;0.30;0.30;;;22.40;75.40;;;;;;5072707;28;20071;-35
2023/08/30 12:34:08;;;;;;;0.50;0.30;;;22.40;75.30;;;;;;5070047;28;20029;-35
2023/08/30 12:36:34;;;;;;;0.45;0.30;;;22.40;75.30;;;;;;5051140;28;20104;-35
2023/08/30 12:39:00;;;;;;;0.32;0.30;;;22.40;75.20;;;;;;5074407;28;20028;-35
2023/08/30 12:41:26;;;;;;;0.40;0.40;;;22.40;75.20;;;;;;5057658;28;20045;-35
2023/08/30 12:43:52;;;;;;;0.43;0.40;;;22.40;75.20;;;;;;5046584;28;20044;-34
2023/08/30 12:46:18;;;;;;;0.35;0.30;;;22.40;75.30;;;;;;5071644;28;20088;-35
2023/08/30 12:48:44;;;;;;;1.27;0.40;;;22.50;76.00;;;;;;5065872;28;20077;-35